Aérodrome :
LOGIN :

S'inscrire | Disclaimer

   EN    FR    IT 

 










Légende :    VFR   VFR Marginal   IFR   IFR Intensif   IFR Très Intensif
Visi : 
Plafond : 
>= 8 km
>= 3000ft
5 à 8 km
1000 à 3000 ft
1500m à 5 km
500 à 1000 ft
800 à 1500m
200 à 500 ft
< 800m
< 200 ft
Symboles :   Orages  Brouillard  Fortes neiges  Fortes précipitations  Vent > 20 kt
SIGMETs :   Divers  Orages  Givrage  Turbulence  Onde Orograph.  Cendres Volcan.







- Altitude de l'aérodrome : 17 ft
- Code IATA : GRQ


EHGG - Groningen Eelde

DERNIER METAR :
  • 230555Z AUTO 22005KT 9999 NCD 19/16 Q1021 NOSIG

METARs EXPIRÉS :
  • 230525Z AUTO 20004KT 9999 NCD 18/16 Q1021 NOSIG
  • 230455Z AUTO 18003KT 150V220 9999 NCD 16/15 Q1021 NOSIG
  • 230425Z AUTO 20003KT 9999 NCD 15/14 Q1021 NOSIG
  • 230355Z AUTO 19002KT 9999 NCD 14/14 Q1021
  • 230325Z AUTO 18002KT 9999 NCD 15/14 Q1021

TAF TAF EHGG
Valide du 23 à 06h jusqu'au 24 à 12h UTC


230423Z 2306/2412 15005KT CAVOK
Pas de NOTAMs connus pour ce terrain.



MET'MAP, la Météo Aéronautique d'un coup d'oeil ! - Copyright ORBIFLY Décembre 2007 - Disclaimer

ORBIFLY MET'MAP TEAM :

Programmation & Développement : Alexandra Zaïnal
Conception & Développement : Baudouin d'Aumeries
Co-Programmation & Développement : Marc-Olivier Méhu
Soutien technique & logistique : Manuel Goepfert

Contact : metmap@orbifly.com




SOURCES & CREDITS :

   NOAA